createdAt,value
2022-10-01T00:00:01.388Z,67.35
2022-10-01T00:02:03.026Z,67.74
2022-10-01T00:04:04.625Z,67.85
2022-10-01T00:06:09.185Z,67.72
2022-10-01T00:08:11.344Z,67.28
2022-10-01T00:10:14.381Z,66.60
2022-10-01T00:12:16.769Z,67.15
2022-10-01T00:14:19.059Z,67.07
2022-10-01T00:16:23.448Z,66.72
2022-10-01T00:18:25.364Z,66.72
2022-10-01T00:20:27.124Z,67.07
2022-10-01T00:22:32.325Z,67.07
2022-10-01T00:24:34.070Z,67.00
2022-10-01T00:26:37.218Z,67.50
2022-10-01T00:28:38.854Z,68.00
2022-10-01T00:30:47.088Z,67.93
2022-10-01T00:32:48.722Z,67.59
2022-10-01T00:34:50.321Z,68.31
2022-10-01T00:36:52.019Z,69.03
2022-10-01T00:38:53.703Z,69.45
2022-10-01T00:40:55.785Z,69.29
2022-10-01T00:42:57.506Z,68.63
2022-10-01T00:45:01.651Z,68.74
2022-10-01T00:47:31.822Z,68.40
2022-10-01T00:49:35.171Z,68.13
2022-10-01T00:51:42.434Z,67.66
2022-10-01T00:53:44.939Z,67.43
2022-10-01T00:55:55.498Z,68.06
2022-10-01T00:57:57.478Z,67.96
2022-10-01T01:00:04.225Z,67.62
2022-10-01T01:02:06.015Z,67.62
2022-10-01T01:04:16.813Z,67.92
2022-10-01T01:06:18.606Z,68.70
2022-10-01T01:08:20.747Z,69.15
2022-10-01T01:10:33.665Z,69.42
2022-10-01T01:12:50.400Z,70.06
2022-10-01T01:15:16.120Z,70.01
2022-10-01T01:17:25.128Z,71.08
2022-10-01T01:19:35.502Z,71.11
2022-10-01T01:21:42.892Z,70.72
2022-10-01T01:24:04.865Z,70.07
2022-10-01T01:26:29.458Z,70.34
2022-10-01T01:28:34.077Z,70.41
2022-10-01T01:30:38.555Z,70.18
2022-10-01T01:33:03.223Z,69.69
2022-10-01T01:35:07.960Z,69.74
2022-10-01T01:37:12.752Z,69.33
2022-10-01T01:39:16.372Z,70.02
2022-10-01T01:41:20.538Z,70.83
2022-10-01T01:43:30.025Z,70.83
2022-10-01T01:45:34.020Z,70.43
2022-10-01T01:47:38.441Z,69.95
2022-10-01T01:49:41.331Z,69.72
2022-10-01T01:52:04.561Z,69.08
2022-10-01T01:54:06.385Z,69.23
2022-10-01T01:56:08.134Z,68.92
2022-10-01T01:58:09.785Z,69.32
2022-10-01T02:00:13.042Z,68.99
2022-10-01T02:02:29.504Z,69.04
2022-10-01T02:04:45.391Z,69.13
2022-10-01T02:06:59.113Z,69.99
2022-10-01T02:09:11.509Z,70.09
2022-10-01T02:11:21.894Z,69.53
2022-10-01T02:13:29.596Z,69.37
2022-10-01T02:15:37.170Z,70.42
2022-10-01T02:17:52.425Z,70.84
2022-10-01T02:19:56.236Z,70.32
2022-10-01T02:22:01.366Z,69.97
2022-10-01T02:24:26.848Z,70.05
2022-10-01T02:26:29.571Z,70.01
2022-10-01T02:28:33.420Z,69.67
2022-10-01T02:30:35.727Z,69.59
2022-10-01T02:32:40.166Z,69.57
2022-10-01T02:34:42.351Z,69.29
2022-10-01T02:36:45.313Z,69.01
2022-10-01T02:38:48.357Z,68.58
2022-10-01T02:40:53.650Z,68.68
2022-10-01T02:42:58.415Z,68.70
2022-10-01T02:45:04.388Z,68.51
2022-10-01T02:47:18.274Z,68.55
2022-10-01T02:49:20.282Z,68.80
2022-10-01T02:51:42.089Z,68.80
2022-10-01T02:53:49.466Z,68.74
2022-10-01T02:55:52.133Z,68.77
2022-10-01T02:57:53.969Z,69.31
2022-10-01T03:00:08.727Z,69.51
2022-10-01T03:02:10.445Z,69.69
2022-10-01T03:04:13.488Z,69.87
2022-10-01T03:06:15.103Z,70.08
2022-10-01T03:08:16.836Z,70.20
2022-10-01T03:10:18.823Z,69.49
2022-10-01T03:12:20.537Z,69.47
2022-10-01T03:14:22.184Z,69.27
2022-10-01T03:16:24.111Z,69.33
2022-10-01T03:18:25.837Z,69.23
2022-10-01T03:20:27.585Z,69.40
2022-10-01T03:22:29.176Z,69.38
2022-10-01T03:24:30.827Z,70.38
2022-10-01T03:26:33.164Z,71.10
2022-10-01T03:28:34.746Z,71.27
2022-10-01T03:30:36.405Z,71.15
2022-10-01T03:32:38.434Z,71.22
2022-10-01T03:34:40.378Z,71.44
2022-10-01T03:36:42.005Z,71.15
2022-10-01T03:38:43.720Z,70.39
2022-10-01T03:40:46.324Z,71.41
2022-10-01T03:42:47.980Z,71.64
2022-10-01T03:44:49.734Z,71.53
2022-10-01T03:46:51.864Z,71.69
2022-10-01T03:48:53.524Z,71.36
2022-10-01T03:50:57.137Z,70.96
2022-10-01T03:52:59.441Z,70.32
2022-10-01T03:55:01.112Z,69.93
2022-10-01T03:57:03.348Z,70.18
2022-10-01T03:59:04.963Z,70.95
2022-10-01T04:01:06.677Z,71.44
2022-10-01T04:03:08.466Z,71.80
2022-10-01T04:05:10.301Z,73.12
2022-10-01T04:07:11.881Z,73.41
2022-10-01T04:09:13.604Z,73.54
2022-10-01T04:11:15.324Z,73.51
2022-10-01T04:13:17.128Z,73.35
2022-10-01T04:15:18.934Z,73.15
2022-10-01T04:17:20.815Z,72.80
2022-10-01T04:19:22.474Z,72.72
2022-10-01T04:21:24.129Z,72.64
2022-10-01T04:23:26.177Z,72.39
2022-10-01T04:25:28.644Z,71.88
2022-10-01T04:27:30.353Z,72.04
2022-10-01T04:29:33.237Z,71.89
2022-10-01T04:31:37.170Z,71.69
2022-10-01T04:33:39.306Z,71.71
2022-10-01T04:35:41.386Z,72.00
2022-10-01T04:37:43.038Z,72.30
2022-10-01T04:39:44.972Z,72.25
2022-10-01T04:41:46.596Z,71.58
2022-10-01T04:43:48.419Z,71.87
2022-10-01T04:45:50.135Z,71.85
2022-10-01T04:47:54.037Z,71.94
2022-10-01T04:49:55.631Z,71.56
2022-10-01T04:51:57.436Z,71.02
2022-10-01T04:53:59.092Z,70.27
2022-10-01T04:56:00.842Z,70.28
2022-10-01T04:58:03.098Z,70.20
2022-10-01T05:00:06.436Z,70.81
2022-10-01T05:02:08.119Z,70.51
2022-10-01T05:04:10.147Z,71.72
2022-10-01T05:06:11.748Z,71.71
2022-10-01T05:08:13.523Z,71.59
2022-10-01T05:10:18.160Z,71.32
2022-10-01T05:12:24.336Z,70.44
2022-10-01T05:14:26.813Z,70.29
2022-10-01T05:16:28.522Z,69.54
2022-10-01T05:18:30.434Z,69.35
2022-10-01T05:20:34.076Z,68.39
2022-10-01T05:22:35.955Z,68.65
2022-10-01T05:24:37.766Z,68.00
2022-10-01T05:26:39.489Z,68.15
2022-10-01T05:28:44.505Z,68.00
2022-10-01T05:30:46.253Z,67.95
2022-10-01T05:32:56.445Z,68.02
2022-10-01T05:34:58.351Z,67.91
2022-10-01T05:37:00.847Z,68.15
2022-10-01T05:39:02.604Z,67.87
2022-10-01T05:41:05.376Z,67.87
2022-10-01T05:43:06.963Z,68.25
2022-10-01T05:45:10.151Z,68.22
2022-10-01T05:47:16.267Z,68.09
2022-10-01T05:49:17.826Z,68.49
2022-10-01T05:51:19.571Z,68.31
2022-10-01T05:53:22.516Z,68.33
2022-10-01T05:55:24.570Z,68.11
2022-10-01T05:57:26.237Z,67.82
2022-10-01T05:59:31.723Z,67.10
2022-10-01T06:01:33.971Z,66.99
2022-10-01T06:03:36.174Z,66.16
2022-10-01T06:05:38.564Z,65.64
2022-10-01T06:07:40.246Z,65.40
2022-10-01T06:09:41.906Z,65.26
2022-10-01T06:11:43.644Z,65.66
2022-10-01T06:13:45.736Z,66.96
2022-10-01T06:15:47.465Z,68.48
2022-10-01T06:17:49.238Z,68.72
2022-10-01T06:19:51.645Z,68.68
2022-10-01T06:21:53.242Z,67.21
2022-10-01T06:23:55.350Z,67.43
2022-10-01T06:25:59.782Z,67.13
2022-10-01T06:28:02.260Z,66.31
2022-10-01T06:30:05.629Z,66.84
2022-10-01T06:32:08.058Z,67.01
2022-10-01T06:34:09.740Z,66.82
2022-10-01T06:36:11.680Z,65.64
2022-10-01T06:38:13.812Z,65.45
2022-10-01T06:40:15.552Z,65.02
2022-10-01T06:42:17.212Z,65.20
2022-10-01T06:44:20.635Z,64.41
2022-10-01T06:46:22.336Z,64.25
2022-10-01T06:48:24.239Z,64.15
2022-10-01T06:50:26.251Z,64.09
2022-10-01T06:52:46.555Z,63.11
2022-10-01T06:54:48.294Z,63.52
2022-10-01T06:56:50.021Z,64.32
2022-10-01T06:58:51.605Z,63.87
2022-10-01T07:00:59.098Z,64.10
2022-10-01T07:03:01.124Z,64.46
2022-10-01T07:05:02.787Z,64.57
2022-10-01T07:07:04.446Z,64.62
2022-10-01T07:09:06.091Z,63.59
2022-10-01T07:11:07.796Z,62.79
2022-10-01T07:13:20.413Z,61.72
2022-10-01T07:15:25.690Z,61.51
2022-10-01T07:17:27.399Z,60.01
2022-10-01T07:19:29.199Z,59.78
2022-10-01T07:21:30.966Z,59.42
2022-10-01T07:23:32.602Z,58.66
2022-10-01T07:25:34.374Z,58.42
2022-10-01T07:27:37.155Z,58.75
2022-10-01T07:29:38.787Z,58.54
2022-10-01T07:31:40.411Z,58.23
2022-10-01T07:33:42.211Z,56.55
2022-10-01T07:35:43.847Z,56.92
2022-10-01T07:37:46.265Z,56.76
2022-10-01T07:39:47.931Z,55.74
2022-10-01T07:41:51.583Z,55.65
2022-10-01T07:43:53.045Z,55.40
2022-10-01T07:45:58.360Z,55.06
2022-10-01T07:48:02.135Z,53.58
2022-10-01T07:50:04.388Z,53.86
2022-10-01T07:52:10.948Z,54.54
2022-10-01T07:54:14.737Z,55.12
2022-10-01T07:56:16.543Z,55.31
2022-10-01T07:58:18.890Z,55.67
2022-10-01T08:00:21.258Z,55.37
2022-10-01T08:02:23.014Z,55.51
2022-10-01T08:04:43.682Z,56.30
2022-10-01T08:06:47.365Z,56.48
2022-10-01T08:08:49.142Z,55.71
2022-10-01T08:10:50.953Z,56.51
2022-10-01T08:12:52.999Z,56.38
2022-10-01T08:14:54.629Z,56.51
2022-10-01T08:16:56.644Z,56.55
2022-10-01T08:18:58.338Z,56.92
2022-10-01T08:21:02.210Z,57.18
2022-10-01T08:23:05.217Z,57.63
2022-10-01T08:25:07.395Z,58.39
2022-10-01T08:27:09.004Z,58.28
2022-10-01T08:29:14.836Z,58.22
2022-10-01T08:31:18.560Z,59.27
2022-10-01T08:33:20.528Z,59.43
2022-10-01T08:35:23.294Z,59.41
2022-10-01T08:37:27.189Z,59.04
2022-10-01T08:39:28.860Z,58.43
2022-10-01T08:41:41.541Z,58.72
2022-10-01T08:43:43.760Z,59.28
2022-10-01T08:45:49.247Z,58.66
2022-10-01T08:48:13.014Z,57.16
2022-10-01T08:50:23.547Z,57.96
2022-10-01T08:52:27.141Z,58.21
2022-10-01T08:54:38.188Z,58.02
2022-10-01T08:56:44.465Z,57.39
2022-10-01T08:58:49.072Z,57.61
2022-10-01T09:00:51.133Z,57.96
2022-10-01T09:02:53.052Z,58.08
2022-10-01T09:05:01.279Z,57.77
2022-10-01T09:07:36.921Z,58.69
2022-10-01T09:09:45.661Z,58.71
2022-10-01T09:12:24.898Z,58.46
2022-10-01T09:15:09.438Z,58.31
2022-10-01T09:17:17.461Z,57.73
2022-10-01T09:19:55.061Z,57.80
2022-10-01T09:22:03.498Z,57.81
2022-10-01T09:24:15.511Z,59.09
2022-10-01T09:26:17.195Z,58.65
2022-10-01T09:28:24.042Z,60.50
2022-10-01T09:30:26.333Z,60.74
2022-10-01T09:32:33.386Z,60.74
2022-10-01T09:34:40.389Z,61.50
2022-10-01T09:37:03.712Z,61.28
2022-10-01T09:39:21.883Z,62.33
2022-10-01T09:41:23.741Z,62.60
2022-10-01T09:43:37.959Z,62.16
2022-10-01T09:45:39.920Z,62.32
2022-10-01T09:47:44.425Z,61.71
2022-10-01T09:49:46.319Z,63.11
2022-10-01T09:51:57.944Z,63.62
2022-10-01T09:54:03.562Z,63.00
2022-10-01T09:56:11.548Z,62.91
2022-10-01T09:58:16.809Z,63.74
2022-10-01T10:00:23.874Z,61.74
2022-10-01T10:02:35.550Z,62.22
2022-10-01T10:04:37.442Z,62.47
2022-10-01T10:06:39.402Z,62.49
2022-10-01T10:08:45.758Z,63.09
2022-10-01T10:11:09.086Z,62.73
2022-10-01T10:13:14.759Z,62.19
2022-10-01T10:15:19.408Z,62.79
2022-10-01T10:17:22.211Z,63.03
2022-10-01T10:19:27.010Z,63.46
2022-10-01T10:21:36.680Z,63.40
2022-10-01T10:23:50.383Z,63.99
2022-10-01T10:26:02.782Z,65.12
2022-10-01T10:28:05.254Z,64.84
2022-10-01T10:30:14.973Z,64.50
2022-10-01T10:32:25.455Z,64.75
2022-10-01T10:34:35.818Z,65.22
2022-10-01T10:36:38.115Z,65.21
2022-10-01T10:38:40.045Z,65.58
2022-10-01T10:40:43.564Z,65.68
2022-10-01T10:42:53.638Z,65.56
2022-10-01T10:44:57.130Z,65.43
2022-10-01T10:47:03.419Z,65.96
2022-10-01T10:49:30.182Z,66.56
2022-10-01T10:51:54.089Z,66.74
2022-10-01T10:53:55.934Z,66.83
2022-10-01T10:56:05.313Z,67.43
2022-10-01T10:58:11.238Z,67.65
2022-10-01T11:00:18.948Z,67.84
2022-10-01T11:02:21.447Z,68.12
2022-10-01T11:04:38.199Z,68.13
2022-10-01T11:06:40.155Z,68.19
2022-10-01T11:08:42.923Z,68.33
2022-10-01T11:10:44.517Z,68.31
2022-10-01T11:12:56.738Z,68.34
2022-10-01T11:15:06.811Z,68.15
2022-10-01T11:17:14.302Z,68.22
2022-10-01T11:19:27.834Z,68.77
2022-10-01T11:21:41.832Z,68.80
2022-10-01T11:23:43.371Z,69.23
2022-10-01T11:26:13.146Z,69.69
2022-10-01T11:28:33.336Z,69.76
2022-10-01T11:30:37.783Z,69.87
2022-10-01T11:32:45.636Z,69.82
2022-10-01T11:35:34.395Z,70.07
2022-10-01T11:37:50.291Z,69.85
2022-10-01T11:39:53.503Z,69.98
2022-10-01T11:42:00.697Z,69.73
2022-10-01T11:44:15.582Z,69.80
2022-10-01T11:46:34.860Z,69.77
2022-10-01T11:48:46.512Z,69.51
2022-10-01T11:50:49.396Z,69.77
2022-10-01T11:52:58.608Z,69.95
2022-10-01T11:55:24.879Z,70.05
2022-10-01T11:57:45.675Z,69.57
2022-10-01T11:59:52.639Z,69.17
2022-10-01T12:02:32.599Z,69.05
2022-10-01T12:04:49.730Z,69.38
2022-10-01T12:06:51.360Z,69.38
2022-10-01T12:09:18.860Z,69.19
2022-10-01T12:11:32.163Z,69.70
2022-10-01T12:13:41.633Z,69.25
2022-10-01T12:16:03.562Z,69.09
2022-10-01T12:18:27.333Z,69.00
2022-10-01T12:20:35.582Z,68.41
2022-10-01T12:22:38.619Z,68.32
2022-10-01T12:24:45.040Z,68.33
2022-10-01T12:26:53.833Z,68.26
2022-10-01T12:29:00.500Z,68.13
2022-10-01T12:31:09.517Z,67.70
2022-10-01T12:33:36.121Z,67.37
2022-10-01T12:35:56.359Z,67.24
2022-10-01T12:38:19.807Z,67.41
2022-10-01T12:40:39.164Z,67.32
2022-10-01T12:43:18.156Z,67.60
2022-10-01T12:45:37.151Z,68.41
2022-10-01T12:48:00.939Z,68.78
2022-10-01T12:50:37.953Z,69.16
2022-10-01T12:52:48.546Z,69.33
2022-10-01T12:55:14.149Z,70.03
2022-10-01T12:57:23.308Z,70.57
2022-10-01T12:59:34.451Z,71.39
2022-10-01T13:01:48.087Z,71.81
2022-10-01T13:04:17.599Z,72.39
2022-10-01T13:06:38.191Z,73.29
2022-10-01T13:08:48.794Z,74.12
2022-10-01T13:11:08.672Z,74.46
2022-10-01T13:13:21.555Z,74.24
2022-10-01T13:15:34.664Z,74.47
2022-10-01T13:17:43.708Z,74.72
2022-10-01T13:19:45.267Z,74.47
2022-10-01T13:21:57.812Z,73.75
2022-10-01T13:24:10.076Z,73.59
2022-10-01T13:26:18.776Z,73.50
2022-10-01T13:28:46.962Z,73.33
2022-10-01T13:30:59.349Z,73.07
2022-10-01T13:33:01.365Z,73.11
2022-10-01T13:35:39.727Z,73.09
2022-10-01T13:37:41.598Z,72.86
2022-10-01T13:39:45.009Z,73.22
2022-10-01T13:41:46.653Z,73.46
2022-10-01T13:43:56.923Z,73.71
2022-10-01T13:46:06.377Z,73.79
2022-10-01T13:48:10.685Z,74.02
2022-10-01T13:50:26.652Z,75.38
2022-10-01T13:52:28.396Z,75.97
2022-10-01T13:54:39.912Z,75.12
2022-10-01T13:56:41.625Z,74.30
2022-10-01T13:58:46.791Z,73.57
2022-10-01T14:00:55.489Z,73.90
2022-10-01T14:03:36.909Z,73.03
2022-10-01T14:05:40.067Z,72.66
2022-10-01T14:07:42.321Z,73.15
2022-10-01T14:09:50.746Z,72.77
2022-10-01T14:12:24.645Z,72.40
2022-10-01T14:14:54.133Z,72.21
2022-10-01T14:16:56.626Z,71.58
2022-10-01T14:18:58.351Z,71.62
2022-10-01T14:21:14.375Z,71.42
2022-10-01T14:23:16.682Z,70.03
2022-10-01T14:25:29.993Z,69.21
2022-10-01T14:27:31.732Z,68.47
2022-10-01T14:30:20.472Z,68.36
2022-10-01T14:32:24.723Z,68.28
2022-10-01T14:35:02.010Z,68.97
2022-10-01T14:37:06.541Z,68.97
2022-10-01T14:39:17.109Z,68.96
2022-10-01T14:41:20.461Z,69.28
2022-10-01T14:43:30.519Z,69.20
2022-10-01T14:45:32.109Z,68.97
2022-10-01T14:47:36.087Z,69.02
2022-10-01T14:49:37.664Z,69.24
2022-10-01T14:51:50.926Z,69.37
2022-10-01T14:53:53.909Z,69.40
2022-10-01T14:56:07.909Z,69.27
2022-10-01T14:58:25.808Z,69.23
2022-10-01T15:00:29.421Z,68.81
2022-10-01T15:02:30.919Z,69.12
2022-10-01T15:04:32.534Z,69.01
2022-10-01T15:06:42.157Z,69.00
2022-10-01T15:08:48.854Z,69.03
2022-10-01T15:10:57.779Z,68.74
2022-10-01T15:12:59.395Z,69.59
2022-10-01T15:15:02.047Z,70.44
2022-10-01T15:17:07.327Z,71.17
2022-10-01T15:19:12.272Z,71.47
2022-10-01T15:21:25.033Z,73.09
2022-10-01T15:23:28.887Z,73.83
2022-10-01T15:25:31.719Z,74.46
2022-10-01T15:27:33.685Z,74.48
2022-10-01T15:29:36.103Z,74.53
2022-10-01T15:31:38.443Z,74.73
2022-10-01T15:33:41.121Z,74.97
2022-10-01T15:35:42.776Z,75.19
2022-10-01T15:37:49.427Z,74.97
2022-10-01T15:39:52.547Z,75.19
2022-10-01T15:41:54.881Z,74.63
2022-10-01T15:43:59.106Z,74.30
2022-10-01T15:46:26.813Z,75.00
2022-10-01T15:48:31.953Z,75.35
2022-10-01T15:50:36.635Z,75.78
2022-10-01T15:52:50.970Z,76.16
2022-10-01T15:54:59.745Z,76.02
2022-10-01T15:57:02.717Z,76.73
2022-10-01T15:59:12.605Z,76.83
2022-10-01T16:01:21.459Z,76.53
2022-10-01T16:03:27.375Z,76.20
2022-10-01T16:05:36.969Z,76.01
2022-10-01T16:07:40.374Z,75.80
2022-10-01T16:09:51.764Z,75.96
2022-10-01T16:11:55.263Z,76.04
2022-10-01T16:14:21.162Z,75.73
2022-10-01T16:16:28.626Z,75.73
2022-10-01T16:18:33.056Z,75.60
2022-10-01T16:20:36.506Z,75.62
2022-10-01T16:22:39.810Z,75.56
2022-10-01T16:24:44.051Z,75.64
2022-10-01T16:26:47.051Z,75.60
2022-10-01T16:28:53.886Z,75.84
2022-10-01T16:30:55.802Z,75.65
2022-10-01T16:33:02.453Z,75.60
2022-10-01T16:35:16.997Z,75.51
2022-10-01T16:37:18.856Z,75.92
2022-10-01T16:39:20.416Z,76.51
2022-10-01T16:41:25.126Z,76.49
2022-10-01T16:43:26.922Z,77.18
2022-10-01T16:45:33.559Z,77.80
2022-10-01T16:47:39.704Z,77.84
2022-10-01T16:49:43.257Z,78.03
2022-10-01T16:51:45.288Z,78.50
2022-10-01T16:53:47.115Z,78.32
2022-10-01T16:55:50.043Z,78.02
2022-10-01T16:57:54.782Z,77.82
2022-10-01T16:59:56.434Z,77.76
2022-10-01T17:01:58.383Z,77.98
2022-10-01T17:04:00.215Z,77.83
2022-10-01T17:06:02.549Z,77.62
2022-10-01T17:08:11.285Z,77.24
2022-10-01T17:10:14.045Z,77.15
2022-10-01T17:12:16.004Z,77.12
2022-10-01T17:14:18.694Z,77.21
2022-10-01T17:16:23.934Z,77.11
2022-10-01T17:18:26.371Z,76.85
2022-10-01T17:20:29.658Z,76.72
2022-10-01T17:22:32.681Z,76.26
2022-10-01T17:24:34.496Z,76.10
2022-10-01T17:26:38.453Z,76.05
2022-10-01T17:28:39.995Z,75.75
2022-10-01T17:30:43.361Z,75.38
2022-10-01T17:32:44.949Z,75.24
2022-10-01T17:34:46.492Z,75.37
2022-10-01T17:36:48.611Z,74.90
2022-10-01T17:38:50.189Z,74.55
2022-10-01T17:40:56.497Z,74.70
2022-10-01T17:42:58.521Z,75.61
2022-10-01T17:45:00.869Z,77.08
2022-10-01T17:47:02.562Z,78.07
2022-10-01T17:49:04.223Z,78.68
2022-10-01T17:51:08.506Z,78.53
2022-10-01T17:53:11.721Z,78.73
2022-10-01T17:55:13.388Z,78.61
2022-10-01T17:57:14.986Z,78.39
2022-10-01T17:59:16.913Z,78.34
2022-10-01T18:01:20.341Z,77.89
2022-10-01T18:03:22.093Z,77.65
2022-10-01T18:05:23.853Z,77.60
2022-10-01T18:07:26.354Z,77.53
2022-10-01T18:09:27.996Z,77.58
2022-10-01T18:11:29.846Z,78.01
2022-10-01T18:13:33.132Z,78.18
2022-10-01T18:15:34.708Z,78.18
2022-10-01T18:17:43.233Z,78.32
2022-10-01T18:19:55.809Z,77.87
2022-10-01T18:21:59.132Z,78.08
2022-10-01T18:24:04.415Z,78.65
2022-10-01T18:26:06.861Z,79.81
2022-10-01T18:28:08.605Z,80.28
2022-10-01T18:30:10.809Z,80.78
2022-10-01T18:32:31.630Z,81.03
2022-10-01T18:34:40.099Z,80.58
2022-10-01T18:36:59.074Z,80.22
2022-10-01T18:39:42.227Z,79.79
2022-10-01T18:41:44.256Z,79.42
2022-10-01T18:43:46.875Z,79.25
2022-10-01T18:45:48.621Z,78.88
2022-10-01T18:48:13.312Z,78.56
2022-10-01T18:50:48.897Z,78.24
2022-10-01T18:53:06.531Z,78.11
2022-10-01T18:55:25.458Z,78.01
2022-10-01T18:58:05.879Z,78.22
2022-10-01T19:00:16.813Z,78.65
2022-10-01T19:02:41.748Z,78.68
2022-10-01T19:04:51.076Z,78.50
2022-10-01T19:07:04.944Z,78.59
2022-10-01T19:09:12.300Z,78.44
2022-10-01T19:11:35.126Z,78.47
2022-10-01T19:13:53.835Z,78.28
2022-10-01T19:16:20.351Z,78.04
2022-10-01T19:18:31.340Z,77.79
2022-10-01T19:20:46.418Z,78.36
2022-10-01T19:23:12.952Z,78.28
2022-10-01T19:25:23.742Z,78.27
2022-10-01T19:27:28.060Z,78.59
2022-10-01T19:30:03.789Z,78.70
2022-10-01T19:32:13.060Z,79.82
2022-10-01T19:34:37.821Z,80.14
2022-10-01T19:36:44.901Z,81.21
2022-10-01T19:38:47.845Z,82.09
2022-10-01T19:41:43.450Z,82.03
2022-10-01T19:43:46.556Z,83.95
2022-10-01T19:45:57.206Z,84.36
2022-10-01T19:48:09.955Z,84.83
2022-10-01T19:50:25.045Z,85.68
2022-10-01T19:52:38.344Z,86.47
2022-10-01T19:54:52.546Z,86.88
2022-10-01T19:56:59.829Z,87.06
2022-10-01T19:59:06.960Z,86.51
2022-10-01T20:01:12.509Z,85.83
2022-10-01T20:03:26.233Z,85.15
2022-10-01T20:05:30.167Z,84.79
2022-10-01T20:07:47.061Z,84.53
2022-10-01T20:09:54.298Z,84.67
2022-10-01T20:12:07.605Z,83.76
2022-10-01T20:14:46.668Z,85.76
2022-10-01T20:16:51.148Z,87.08
2022-10-01T20:19:14.090Z,87.75
2022-10-01T20:21:55.958Z,87.74
2022-10-01T20:24:00.381Z,87.78
2022-10-01T20:26:26.230Z,87.69
2022-10-01T20:28:32.863Z,86.55
2022-10-01T20:30:59.225Z,86.28
2022-10-01T20:33:10.362Z,86.09
2022-10-01T20:35:32.277Z,85.37
2022-10-01T20:37:52.458Z,85.27
2022-10-01T20:40:06.037Z,84.91
2022-10-01T20:42:16.293Z,84.55
2022-10-01T20:44:22.160Z,84.04
2022-10-01T20:46:41.117Z,83.98
2022-10-01T20:48:45.475Z,84.21
2022-10-01T20:50:51.169Z,84.22
2022-10-01T20:52:56.341Z,83.83
2022-10-01T20:55:04.217Z,84.35
2022-10-01T20:57:21.173Z,84.52
2022-10-01T20:59:30.816Z,84.66
2022-10-01T21:01:36.941Z,84.18
2022-10-01T21:03:44.383Z,84.29
2022-10-01T21:05:51.909Z,84.53
2022-10-01T21:07:58.069Z,84.81
2022-10-01T21:10:00.634Z,84.70
2022-10-01T21:12:11.876Z,84.77
2022-10-01T21:14:18.776Z,85.00
2022-10-01T21:16:26.652Z,85.76
2022-10-01T21:19:14.149Z,87.30
2022-10-01T21:21:34.418Z,89.22
2022-10-01T21:23:39.936Z,89.88
2022-10-01T21:25:50.553Z,90.35
2022-10-01T21:27:52.442Z,92.64
2022-10-01T21:30:04.827Z,93.94
2022-10-01T21:32:06.478Z,94.13
2022-10-01T21:34:13.958Z,95.05
2022-10-01T21:36:19.602Z,94.96
2022-10-01T21:38:39.229Z,95.40
2022-10-01T21:41:01.115Z,96.13
2022-10-01T21:43:05.951Z,98.27
2022-10-01T21:45:16.665Z,98.43
2022-10-01T21:47:30.323Z,98.63
2022-10-01T21:50:11.935Z,99.00
2022-10-01T21:52:19.506Z,98.90
2022-10-01T21:54:46.076Z,99.11
2022-10-01T21:57:29.817Z,97.94
2022-10-01T22:00:13.289Z,97.67
2022-10-01T22:02:29.988Z,97.41
2022-10-01T22:04:48.465Z,97.83
2022-10-01T22:06:58.418Z,97.74
2022-10-01T22:09:23.621Z,97.75
2022-10-01T22:11:33.085Z,97.32
2022-10-01T22:13:47.894Z,96.46
2022-10-01T22:15:52.698Z,95.49
2022-10-01T22:17:55.176Z,93.91
2022-10-01T22:19:57.993Z,92.38
2022-10-01T22:22:05.371Z,92.89
2022-10-01T22:24:13.243Z,92.91
2022-10-01T22:26:21.034Z,92.51
2022-10-01T22:28:39.756Z,91.67
2022-10-01T22:30:42.914Z,90.93
2022-10-01T22:32:53.812Z,89.73
2022-10-01T22:35:00.684Z,89.38
2022-10-01T22:37:05.841Z,89.34
2022-10-01T22:39:23.596Z,87.99
2022-10-01T22:41:31.288Z,87.95
2022-10-01T22:43:33.328Z,87.33
2022-10-01T22:45:45.853Z,85.96
2022-10-01T22:48:15.128Z,85.76
2022-10-01T22:50:31.833Z,85.63
2022-10-01T22:52:55.048Z,85.06
2022-10-01T22:55:05.513Z,83.68
2022-10-01T22:57:28.121Z,84.22
2022-10-01T22:59:55.390Z,83.69
2022-10-01T23:02:29.587Z,83.16
2022-10-01T23:04:46.410Z,82.88
2022-10-01T23:07:21.110Z,82.88
2022-10-01T23:09:28.925Z,82.65
2022-10-01T23:11:54.843Z,82.73
2022-10-01T23:14:02.308Z,82.27
2022-10-01T23:16:39.838Z,81.45
2022-10-01T23:18:47.572Z,81.23
2022-10-01T23:21:20.045Z,80.94
2022-10-01T23:23:21.639Z,81.85
2022-10-01T23:25:35.230Z,81.95
2022-10-01T23:27:37.017Z,82.40
2022-10-01T23:30:06.691Z,81.88
2022-10-01T23:32:45.748Z,81.99
2022-10-01T23:35:02.365Z,81.88
2022-10-01T23:37:27.034Z,82.00
2022-10-01T23:39:47.915Z,82.50
2022-10-01T23:41:55.354Z,82.59
2022-10-01T23:44:05.666Z,82.52
2022-10-01T23:46:22.864Z,82.79
2022-10-01T23:48:35.168Z,82.38
2022-10-01T23:50:36.779Z,82.27
2022-10-01T23:52:45.915Z,81.95
2022-10-01T23:54:52.320Z,81.68
2022-10-01T23:57:02.858Z,81.78
2022-10-01T23:59:31.139Z,81.89
